Time;durP1;ratioP1;P1;durP2;ratioP2;P2;SDS_P1;SDS_P2;PMS_P1;PMS_P2;Temp;Humidity;BMP_temperature;BMP_pressure;BME280_temperature;BME280_humidity;BME280_pressure;Samples;Min_cycle;Max_cycle;Signal;HPM_P1;HPM_P2
2023/05/16 00:01:44;;;;;;;2.10;2.00;;;;;;;;;;5121689;28;20267;-64
2023/05/16 00:04:12;;;;;;;1.90;1.80;;;;;;;;;;5121537;28;20199;-64
2023/05/16 00:06:40;;;;;;;1.98;1.88;;;;;;;;;;5121944;28;20221;-64
2023/05/16 00:09:07;;;;;;;2.10;2.00;;;;;;;;;;5121552;28;20236;-64
2023/05/16 00:11:35;;;;;;;2.00;1.80;;;;;;;;;;5121702;28;20203;-64
2023/05/16 00:14:02;;;;;;;1.65;1.55;;;;;;;;;;5121469;28;20214;-64
2023/05/16 00:16:30;;;;;;;1.80;1.70;;;;;;;;;;5121806;28;20294;-64
2023/05/16 00:18:59;;;;;;;1.65;1.55;;;;;;;;;;5121540;28;20203;-64
2023/05/16 00:21:28;;;;;;;2.15;1.77;;;;;;;;;;5121677;28;20250;-64
2023/05/16 00:23:56;;;;;;;2.00;1.90;;;;;;;;;;5121623;28;20485;-64
2023/05/16 00:26:23;;;;;;;1.92;1.80;;;;;;;;;;5120897;28;20642;-65
2023/05/16 00:28:50;;;;;;;1.85;1.75;;;;;;;;;;5121379;28;20203;-65
2023/05/16 00:31:18;;;;;;;1.80;1.70;;;;;;;;;;5119848;28;20203;-64
2023/05/16 00:33:45;;;;;;;1.75;1.65;;;;;;;;;;5120649;28;20230;-64
2023/05/16 00:36:12;;;;;;;1.70;1.60;;;;;;;;;;5120769;28;20234;-64
2023/05/16 00:38:42;;;;;;;1.90;1.80;;;;;;;;;;5120966;28;20213;-64
2023/05/16 00:41:09;;;;;;;1.63;1.50;;;;;;;;;;5120844;28;20202;-64
2023/05/16 00:43:38;;;;;;;1.85;1.75;;;;;;;;;;5120583;28;20297;-65
2023/05/16 00:46:05;;;;;;;1.70;1.60;;;;;;;;;;5121360;28;20199;-65
2023/05/16 00:48:33;;;;;;;1.80;1.70;;;;;;;;;;5120661;28;20628;-65
2023/05/16 00:51:01;;;;;;;1.90;1.80;;;;;;;;;;5121342;28;20202;-65
2023/05/16 00:53:29;;;;;;;1.70;1.60;;;;;;;;;;5120814;28;20203;-64
2023/05/16 00:55:58;;;;;;;1.90;1.80;;;;;;;;;;5119919;28;20316;-65
2023/05/16 00:58:26;;;;;;;1.52;1.42;;;;;;;;;;5120541;28;20457;-65
2023/05/16 01:00:53;;;;;;;1.80;1.70;;;;;;;;;;5120654;28;20202;-64
2023/05/16 01:03:20;;;;;;;1.63;1.52;;;;;;;;;;5120814;28;20601;-65
2023/05/16 01:05:49;;;;;;;1.80;1.70;;;;;;;;;;5120650;28;20203;-66
2023/05/16 01:08:16;;;;;;;1.75;1.65;;;;;;;;;;5120356;28;20213;-64
2023/05/16 01:10:50;;;;;;;1.55;1.45;;;;;;;;;;5120510;28;20210;-65
2023/05/16 01:13:23;;;;;;;1.60;1.50;;;;;;;;;;5120690;28;20560;-64
2023/05/16 01:15:56;;;;;;;1.65;1.55;;;;;;;;;;5120477;28;20249;-64
2023/05/16 01:18:26;;;;;;;1.80;1.70;;;;;;;;;;5120291;28;20207;-64
2023/05/16 01:20:59;;;;;;;1.60;1.50;;;;;;;;;;5120192;28;20209;-65
2023/05/16 01:23:42;;;;;;;1.73;1.63;;;;;;;;;;5120025;28;20513;-64
2023/05/16 01:26:16;;;;;;;1.70;1.60;;;;;;;;;;5119835;28;20652;-64
2023/05/16 01:28:45;;;;;;;1.65;1.55;;;;;;;;;;5120241;28;20578;-64
2023/05/16 01:31:12;;;;;;;1.73;1.63;;;;;;;;;;5120156;28;20214;-65
2023/05/16 01:33:40;;;;;;;1.88;1.77;;;;;;;;;;5119494;28;20494;-65
2023/05/16 01:36:12;;;;;;;1.80;1.70;;;;;;;;;;5120079;28;20237;-65
2023/05/16 01:38:42;;;;;;;1.70;1.60;;;;;;;;;;5119597;28;20217;-66
2023/05/16 01:41:13;;;;;;;1.52;1.42;;;;;;;;;;5120215;28;20214;-65
2023/05/16 01:43:44;;;;;;;1.80;1.70;;;;;;;;;;5119498;28;20242;-65
2023/05/16 01:46:13;;;;;;;1.70;1.60;;;;;;;;;;5119481;28;20260;-65
2023/05/16 01:48:45;;;;;;;1.70;1.60;;;;;;;;;;5119845;28;20207;-65
2023/05/16 01:51:13;;;;;;;1.77;1.67;;;;;;;;;;5119835;28;20203;-64
2023/05/16 01:53:44;;;;;;;1.80;1.70;;;;;;;;;;5119906;28;20210;-65
2023/05/16 01:56:16;;;;;;;1.60;1.50;;;;;;;;;;5119219;28;20262;-65
2023/05/16 01:58:45;;;;;;;1.80;1.70;;;;;;;;;;5119409;28;20203;-65
2023/05/16 02:01:13;;;;;;;1.60;1.50;;;;;;;;;;5119045;28;20203;-65
2023/05/16 02:03:41;;;;;;;1.63;1.52;;;;;;;;;;5119249;28;20203;-65
2023/05/16 02:06:08;;;;;;;1.50;1.40;;;;;;;;;;5119208;28;20211;-65
2023/05/16 02:08:35;;;;;;;1.60;1.50;;;;;;;;;;5119383;28;20207;-65
2023/05/16 02:11:03;;;;;;;1.73;1.63;;;;;;;;;;5119202;28;20214;-65
2023/05/16 02:13:30;;;;;;;1.75;1.65;;;;;;;;;;5119156;28;20202;-65
2023/05/16 02:15:59;;;;;;;1.73;1.63;;;;;;;;;;5118968;28;20231;-65
2023/05/16 02:18:27;;;;;;;1.50;1.40;;;;;;;;;;5118910;28;20213;-65
2023/05/16 02:20:54;;;;;;;1.63;1.52;;;;;;;;;;5118841;28;20257;-65
2023/05/16 02:23:22;;;;;;;1.80;1.70;;;;;;;;;;5118454;28;20203;-65
2023/05/16 02:25:49;;;;;;;1.90;1.80;;;;;;;;;;5118947;28;20199;-65
2023/05/16 02:28:17;;;;;;;1.60;1.50;;;;;;;;;;5098336;28;20211;-65
2023/05/16 02:30:44;;;;;;;1.65;1.55;;;;;;;;;;5098318;28;20238;-65
2023/05/16 02:33:13;;;;;;;1.70;1.60;;;;;;;;;;5098074;28;20208;-65
2023/05/16 02:35:40;;;;;;;1.80;1.70;;;;;;;;;;5098135;28;20223;-65
2023/05/16 02:38:08;;;;;;;1.70;1.60;;;;;;;;;;5098348;28;20239;-65
2023/05/16 02:40:36;;;;;;;1.60;1.50;;;;;;;;;;5097849;28;20203;-65
2023/05/16 02:43:03;;;;;;;1.70;1.60;;;;;;;;;;5097291;28;20204;-64
2023/05/16 02:45:30;;;;;;;1.42;1.33;;;;;;;;;;5098161;28;20200;-64
2023/05/16 02:47:58;;;;;;;1.52;1.42;;;;;;;;;;5098202;28;20204;-65
2023/05/16 02:50:27;;;;;;;1.80;1.70;;;;;;;;;;5098502;28;20215;-67
2023/05/16 02:52:54;;;;;;;1.58;1.50;;;;;;;;;;5098151;28;20606;-67
2023/05/16 02:55:21;;;;;;;1.77;1.50;;;;;;;;;;5098441;28;20230;-65
2023/05/16 02:57:49;;;;;;;1.73;1.63;;;;;;;;;;5097935;28;20498;-64
2023/05/16 03:00:17;;;;;;;1.77;1.67;;;;;;;;;;5097976;28;20229;-65
2023/05/16 03:02:44;;;;;;;1.58;1.48;;;;;;;;;;5097824;28;20212;-64
2023/05/16 03:05:12;;;;;;;1.52;1.42;;;;;;;;;;5097551;28;20260;-65
2023/05/16 03:07:42;;;;;;;1.60;1.50;;;;;;;;;;5098269;28;20213;-64
2023/05/16 03:10:10;;;;;;;1.50;1.40;;;;;;;;;;5097822;28;20207;-64
2023/05/16 03:12:37;;;;;;;1.60;1.50;;;;;;;;;;5097781;28;20203;-65
2023/05/16 03:15:05;;;;;;;1.65;1.55;;;;;;;;;;5098104;28;20245;-64
2023/05/16 03:17:32;;;;;;;1.60;1.50;;;;;;;;;;5097845;28;20215;-64
2023/05/16 03:19:59;;;;;;;1.75;1.65;;;;;;;;;;5099609;28;20203;-65
2023/05/16 03:22:27;;;;;;;1.75;1.65;;;;;;;;;;5102318;28;20203;-66
2023/05/16 03:24:56;;;;;;;1.88;1.77;;;;;;;;;;5101876;28;20221;-65
2023/05/16 03:27:23;;;;;;;1.58;1.48;;;;;;;;;;5114800;28;20258;-64
2023/05/16 03:29:50;;;;;;;1.63;1.52;;;;;;;;;;5122264;28;20581;-67
2023/05/16 03:32:18;;;;;;;1.75;1.65;;;;;;;;;;5122160;28;20203;-66
2023/05/16 03:34:45;;;;;;;1.70;1.60;;;;;;;;;;5122438;28;20210;-70
2023/05/16 03:37:14;;;;;;;1.90;1.80;;;;;;;;;;5122330;28;20605;-65
2023/05/16 03:39:42;;;;;;;1.80;1.70;;;;;;;;;;5121898;28;20218;-64
2023/05/16 03:42:11;;;;;;;1.63;1.52;;;;;;;;;;5122187;28;20206;-64
2023/05/16 03:44:38;;;;;;;1.80;1.70;;;;;;;;;;5121855;28;20203;-65
2023/05/16 03:47:06;;;;;;;1.55;1.45;;;;;;;;;;5121689;28;20205;-64
2023/05/16 03:49:33;;;;;;;1.90;1.80;;;;;;;;;;5122156;28;20464;-64
2023/05/16 03:52:01;;;;;;;1.80;1.70;;;;;;;;;;5121143;28;20213;-64
2023/05/16 03:54:28;;;;;;;1.70;1.60;;;;;;;;;;5120894;28;20199;-64
2023/05/16 03:56:55;;;;;;;1.70;1.60;;;;;;;;;;5120654;28;20234;-65
2023/05/16 03:59:24;;;;;;;1.70;1.60;;;;;;;;;;5122183;27;20678;-65
2023/05/16 04:01:51;;;;;;;1.67;1.58;;;;;;;;;;5121110;28;20211;-65
2023/05/16 04:04:19;;;;;;;1.80;1.70;;;;;;;;;;5120555;28;20210;-65
2023/05/16 04:06:47;;;;;;;1.67;1.58;;;;;;;;;;5120812;28;20249;-65
2023/05/16 04:09:14;;;;;;;1.70;1.60;;;;;;;;;;5121640;28;20222;-65
2023/05/16 04:11:42;;;;;;;1.70;1.60;;;;;;;;;;5120714;28;20202;-65
2023/05/16 04:14:09;;;;;;;1.63;1.52;;;;;;;;;;5121312;28;20762;-65
2023/05/16 04:16:38;;;;;;;1.60;1.50;;;;;;;;;;5120732;28;20231;-65
2023/05/16 04:19:05;;;;;;;1.92;1.83;;;;;;;;;;5120371;28;20203;-65
2023/05/16 04:21:34;;;;;;;1.70;1.60;;;;;;;;;;5120547;28;20464;-65
2023/05/16 04:24:01;;;;;;;1.63;1.52;;;;;;;;;;5121006;28;20302;-65
2023/05/16 04:26:29;;;;;;;1.83;1.73;;;;;;;;;;5121027;28;20237;-65
2023/05/16 04:28:57;;;;;;;1.65;1.55;;;;;;;;;;5120561;28;20199;-65
2023/05/16 04:31:26;;;;;;;1.70;1.60;;;;;;;;;;5120507;28;20202;-65
2023/05/16 04:33:54;;;;;;;1.83;1.73;;;;;;;;;;5119134;28;20214;-65
2023/05/16 04:36:22;;;;;;;2.00;1.75;;;;;;;;;;5119986;28;20289;-65
2023/05/16 04:38:49;;;;;;;1.70;1.60;;;;;;;;;;5120068;28;20202;-65
2023/05/16 04:41:17;;;;;;;2.00;1.90;;;;;;;;;;5119846;28;20203;-65
2023/05/16 04:43:44;;;;;;;1.70;1.60;;;;;;;;;;5119014;28;20195;-65
2023/05/16 04:46:12;;;;;;;1.88;1.77;;;;;;;;;;5119300;28;20589;-65
2023/05/16 04:48:39;;;;;;;1.60;1.50;;;;;;;;;;5119623;28;20203;-65
2023/05/16 04:51:08;;;;;;;1.60;1.50;;;;;;;;;;5119797;28;20214;-65
2023/05/16 04:53:35;;;;;;;1.70;1.60;;;;;;;;;;5118799;28;20210;-65
2023/05/16 04:56:04;;;;;;;1.90;1.80;;;;;;;;;;5118505;28;20626;-65
2023/05/16 04:58:31;;;;;;;1.80;1.70;;;;;;;;;;5118599;28;20213;-65
2023/05/16 05:00:59;;;;;;;2.13;1.85;;;;;;;;;;5118362;28;20214;-65
2023/05/16 05:03:27;;;;;;;1.70;1.60;;;;;;;;;;5118025;28;20207;-65
2023/05/16 05:05:54;;;;;;;1.80;1.70;;;;;;;;;;5118429;28;20233;-65
2023/05/16 05:08:23;;;;;;;1.90;1.80;;;;;;;;;;5118550;28;20203;-65
2023/05/16 05:10:50;;;;;;;1.90;1.80;;;;;;;;;;5117530;28;20214;-65
2023/05/16 05:13:18;;;;;;;1.90;1.80;;;;;;;;;;5117448;28;20210;-65
2023/05/16 05:15:45;;;;;;;1.83;1.73;;;;;;;;;;5117859;28;20219;-65
2023/05/16 05:18:13;;;;;;;1.70;1.60;;;;;;;;;;5117511;28;20214;-65
2023/05/16 05:20:40;;;;;;;1.80;1.70;;;;;;;;;;5116646;28;20199;-65
2023/05/16 05:23:07;;;;;;;1.77;1.67;;;;;;;;;;5117316;28;20277;-64
2023/05/16 05:25:37;;;;;;;1.98;1.88;;;;;;;;;;5117051;28;20207;-64
2023/05/16 05:28:04;;;;;;;1.80;1.70;;;;;;;;;;5116872;28;20235;-64
2023/05/16 05:30:32;;;;;;;2.28;1.60;;;;;;;;;;5115930;28;20601;-64
2023/05/16 05:32:59;;;;;;;1.83;1.73;;;;;;;;;;5117247;28;20195;-65
2023/05/16 05:35:26;;;;;;;1.90;1.80;;;;;;;;;;5118265;28;20217;-65
2023/05/16 05:37:54;;;;;;;1.90;1.80;;;;;;;;;;5117473;28;20285;-64
2023/05/16 05:40:22;;;;;;;1.83;1.73;;;;;;;;;;5117105;28;20234;-64
2023/05/16 05:42:50;;;;;;;1.95;1.85;;;;;;;;;;5116966;28;20614;-64
2023/05/16 05:45:18;;;;;;;1.80;1.70;;;;;;;;;;5117503;28;20605;-66
2023/05/16 05:47:45;;;;;;;1.90;1.80;;;;;;;;;;5116528;28;20206;-65
2023/05/16 05:50:13;;;;;;;2.22;1.95;;;;;;;;;;5117723;28;20347;-68
2023/05/16 05:52:41;;;;;;;1.88;1.77;;;;;;;;;;5117050;28;20203;-64
2023/05/16 05:55:09;;;;;;;1.90;1.80;;;;;;;;;;5116380;28;20203;-64
2023/05/16 05:57:36;;;;;;;1.95;1.85;;;;;;;;;;5116375;28;20219;-64
2023/05/16 06:00:06;;;;;;;2.03;1.92;;;;;;;;;;5116272;28;20202;-64
2023/05/16 06:02:33;;;;;;;1.80;1.70;;;;;;;;;;5114516;28;20214;-65
2023/05/16 06:05:00;;;;;;;1.90;1.80;;;;;;;;;;5116627;28;20195;-64
2023/05/16 06:07:28;;;;;;;1.80;1.70;;;;;;;;;;5116745;28;20590;-65
2023/05/16 06:09:55;;;;;;;1.98;1.85;;;;;;;;;;5116715;28;20199;-64
2023/05/16 06:12:23;;;;;;;1.80;1.70;;;;;;;;;;5116732;28;20609;-64
2023/05/16 06:14:50;;;;;;;1.77;1.67;;;;;;;;;;5116814;28;20198;-64
2023/05/16 06:17:19;;;;;;;1.90;1.80;;;;;;;;;;5116786;28;20223;-64
2023/05/16 06:19:46;;;;;;;2.65;1.70;;;;;;;;;;5116493;28;20199;-64
2023/05/16 06:22:14;;;;;;;1.90;1.70;;;;;;;;;;5115910;28;20203;-67
2023/05/16 06:24:41;;;;;;;1.70;1.60;;;;;;;;;;5116366;28;20203;-64
2023/05/16 06:27:09;;;;;;;1.90;1.80;;;;;;;;;;5116535;28;20628;-64
2023/05/16 06:29:36;;;;;;;2.22;2.03;;;;;;;;;;5116947;28;20203;-65
2023/05/16 06:32:04;;;;;;;2.20;2.03;;;;;;;;;;5116421;28;20238;-66
2023/05/16 06:34:33;;;;;;;1.77;1.65;;;;;;;;;;5115901;28;20202;-65
2023/05/16 06:37:02;;;;;;;2.00;1.90;;;;;;;;;;5116733;28;20222;-64
2023/05/16 06:39:29;;;;;;;1.90;1.80;;;;;;;;;;5117057;28;20264;-65
2023/05/16 06:41:57;;;;;;;2.00;1.90;;;;;;;;;;5116385;28;20205;-65
2023/05/16 06:44:24;;;;;;;2.20;2.10;;;;;;;;;;5116490;28;20238;-64
2023/05/16 06:46:52;;;;;;;2.13;1.90;;;;;;;;;;5116441;28;20500;-66
2023/05/16 06:49:20;;;;;;;1.90;1.80;;;;;;;;;;5115862;28;20198;-65
2023/05/16 06:51:49;;;;;;;1.95;1.85;;;;;;;;;;5115245;28;20714;-64
2023/05/16 06:54:16;;;;;;;1.95;1.85;;;;;;;;;;5115164;28;20211;-65
2023/05/16 06:56:43;;;;;;;2.22;2.13;;;;;;;;;;5116824;28;20227;-65
2023/05/16 06:59:11;;;;;;;2.42;2.22;;;;;;;;;;5116311;28;20245;-65
2023/05/16 07:01:38;;;;;;;2.10;2.00;;;;;;;;;;5116232;28;20210;-65
2023/05/16 07:04:06;;;;;;;2.03;1.92;;;;;;;;;;5115620;28;20199;-64
2023/05/16 07:06:33;;;;;;;2.00;1.90;;;;;;;;;;5116054;28;20206;-64
2023/05/16 07:09:02;;;;;;;1.75;1.65;;;;;;;;;;5115852;28;20207;-65
2023/05/16 07:11:29;;;;;;;2.30;2.13;;;;;;;;;;5115753;28;20202;-65
2023/05/16 07:13:56;;;;;;;2.30;2.10;;;;;;;;;;5115592;28;20277;-65
2023/05/16 07:16:27;;;;;;;2.00;1.90;;;;;;;;;;5116293;28;20222;-65
2023/05/16 07:18:55;;;;;;;2.20;2.00;;;;;;;;;;5115355;28;20202;-65
2023/05/16 07:21:22;;;;;;;1.83;1.73;;;;;;;;;;5115755;28;20203;-65
2023/05/16 07:23:49;;;;;;;2.05;1.95;;;;;;;;;;5115364;28;20225;-64
2023/05/16 07:26:21;;;;;;;2.13;2.03;;;;;;;;;;5114549;28;20214;-65
2023/05/16 07:28:48;;;;;;;1.98;1.88;;;;;;;;;;5116370;28;20203;-64
2023/05/16 07:31:16;;;;;;;1.77;1.67;;;;;;;;;;5116544;28;20195;-64
2023/05/16 07:33:45;;;;;;;1.92;1.83;;;;;;;;;;5116445;28;20210;-64
2023/05/16 07:36:13;;;;;;;2.30;2.10;;;;;;;;;;5116754;28;20294;-64
2023/05/16 07:38:40;;;;;;;1.90;1.80;;;;;;;;;;5116198;28;20207;-65
2023/05/16 07:41:07;;;;;;;2.00;1.90;;;;;;;;;;5115364;28;20214;-64
2023/05/16 07:43:36;;;;;;;2.22;2.13;;;;;;;;;;5115408;28;20222;-65
2023/05/16 07:46:04;;;;;;;1.90;1.80;;;;;;;;;;5116018;28;20214;-64
2023/05/16 07:48:31;;;;;;;2.03;1.92;;;;;;;;;;5107597;28;20195;-64
2023/05/16 07:50:59;;;;;;;2.00;1.90;;;;;;;;;;5115632;28;20203;-65
2023/05/16 07:53:26;;;;;;;2.10;2.00;;;;;;;;;;5115514;28;20500;-65
2023/05/16 07:55:54;;;;;;;1.80;1.70;;;;;;;;;;5115111;28;20199;-65
2023/05/16 07:58:22;;;;;;;2.08;1.98;;;;;;;;;;5114922;28;20218;-65
2023/05/16 08:00:51;;;;;;;2.20;2.10;;;;;;;;;;5115236;28;20195;-65
2023/05/16 08:03:18;;;;;;;1.90;1.80;;;;;;;;;;5115135;28;20492;-66
2023/05/16 08:05:47;;;;;;;1.90;1.80;;;;;;;;;;5116486;28;20214;-66
2023/05/16 08:08:15;;;;;;;2.05;1.95;;;;;;;;;;5119349;28;20236;-66
2023/05/16 08:10:42;;;;;;;2.13;2.03;;;;;;;;;;5118905;28;20571;-66
2023/05/16 08:13:10;;;;;;;2.05;1.90;;;;;;;;;;5118945;28;20214;-66
2023/05/16 08:15:38;;;;;;;1.98;1.88;;;;;;;;;;5118538;28;20206;-66
2023/05/16 08:18:13;;;;;;;2.10;2.00;;;;;;;;;;5117996;28;20231;-65
2023/05/16 08:20:40;;;;;;;2.10;1.90;;;;;;;;;;5119575;28;20289;-66
2023/05/16 08:23:07;;;;;;;2.33;2.13;;;;;;;;;;5117849;28;20263;-66
2023/05/16 08:25:36;;;;;;;2.25;2.15;;;;;;;;;;5118950;28;20201;-66
2023/05/16 08:28:03;;;;;;;1.90;1.80;;;;;;;;;;5118640;28;20227;-66
2023/05/16 08:30:31;;;;;;;1.80;1.70;;;;;;;;;;5118499;28;20520;-66
2023/05/16 08:32:58;;;;;;;1.90;1.80;;;;;;;;;;5118601;28;20203;-66
2023/05/16 08:35:26;;;;;;;2.08;1.98;;;;;;;;;;5118670;28;20207;-66
2023/05/16 08:37:54;;;;;;;2.13;2.03;;;;;;;;;;5117672;28;20245;-66
2023/05/16 08:40:23;;;;;;;2.10;2.00;;;;;;;;;;5118904;28;20645;-66
2023/05/16 08:42:50;;;;;;;1.85;1.75;;;;;;;;;;5118755;28;20206;-66
2023/05/16 08:45:18;;;;;;;1.85;1.75;;;;;;;;;;5118635;28;20218;-65
2023/05/16 08:47:46;;;;;;;2.00;1.90;;;;;;;;;;5117942;28;20646;-66
2023/05/16 08:50:13;;;;;;;2.00;1.90;;;;;;;;;;5118824;28;20508;-65
2023/05/16 08:52:43;;;;;;;1.95;1.85;;;;;;;;;;5117873;28;20220;-65
2023/05/16 08:55:11;;;;;;;1.90;1.80;;;;;;;;;;5117892;28;20575;-66
2023/05/16 08:57:39;;;;;;;1.83;1.73;;;;;;;;;;5118372;28;20223;-66
2023/05/16 09:00:10;;;;;;;2.00;1.90;;;;;;;;;;5118895;28;20211;-66
2023/05/16 09:02:38;;;;;;;1.88;1.77;;;;;;;;;;5118021;28;20238;-66
2023/05/16 09:05:06;;;;;;;1.95;1.85;;;;;;;;;;5118267;28;20203;-66
2023/05/16 09:07:33;;;;;;;2.08;1.98;;;;;;;;;;5118238;28;20249;-66
2023/05/16 09:10:02;;;;;;;2.05;1.95;;;;;;;;;;5117432;28;20199;-66
2023/05/16 09:12:30;;;;;;;1.90;1.80;;;;;;;;;;5118440;28;20199;-66
2023/05/16 09:14:57;;;;;;;2.13;2.03;;;;;;;;;;5116704;28;20199;-66
2023/05/16 09:17:25;;;;;;;2.00;1.90;;;;;;;;;;5116227;28;20222;-66
2023/05/16 09:19:56;;;;;;;2.03;1.92;;;;;;;;;;5117447;28;20214;-65
2023/05/16 09:22:24;;;;;;;1.95;1.85;;;;;;;;;;5117057;28;20203;-65
2023/05/16 09:24:51;;;;;;;2.00;1.90;;;;;;;;;;5116446;28;20226;-66
2023/05/16 09:27:20;;;;;;;3.17;2.13;;;;;;;;;;5126447;27;20230;-66
2023/05/16 09:29:51;;;;;;;1.92;1.83;;;;;;;;;;5137167;27;20518;-65
2023/05/16 09:32:20;;;;;;;2.03;1.92;;;;;;;;;;5136972;27;20210;-66
2023/05/16 09:34:48;;;;;;;2.25;2.05;;;;;;;;;;5136381;27;20229;-66
2023/05/16 09:37:15;;;;;;;2.05;1.95;;;;;;;;;;5137073;27;20328;-65
2023/05/16 09:39:50;;;;;;;2.13;1.90;;;;;;;;;;5137563;27;20209;-66
2023/05/16 09:42:18;;;;;;;2.00;1.90;;;;;;;;;;5136533;27;20198;-66
2023/05/16 09:44:49;;;;;;;2.00;1.90;;;;;;;;;;5137210;27;20213;-66
2023/05/16 09:47:17;;;;;;;1.92;1.83;;;;;;;;;;5137565;27;20199;-66
2023/05/16 09:49:45;;;;;;;2.72;2.00;;;;;;;;;;5136399;27;20224;-67
2023/05/16 09:52:12;;;;;;;4.60;2.10;;;;;;;;;;5137084;27;20266;-66
2023/05/16 09:54:40;;;;;;;2.10;2.00;;;;;;;;;;5136298;27;20214;-66
2023/05/16 09:57:07;;;;;;;2.10;2.00;;;;;;;;;;5137676;27;20233;-66
2023/05/16 09:59:36;;;;;;;1.95;1.85;;;;;;;;;;5136123;27;20279;-66
2023/05/16 10:02:06;;;;;;;2.15;2.05;;;;;;;;;;5136841;27;20194;-66
2023/05/16 10:04:34;;;;;;;2.30;2.08;;;;;;;;;;5136252;27;20203;-65
2023/05/16 10:07:03;;;;;;;2.25;2.15;;;;;;;;;;5136793;27;20234;-66
2023/05/16 10:09:32;;;;;;;2.00;1.90;;;;;;;;;;5136226;27;20234;-66
2023/05/16 10:12:03;;;;;;;2.28;2.08;;;;;;;;;;5136822;27;20249;-67
2023/05/16 10:14:31;;;;;;;2.20;2.10;;;;;;;;;;5136160;27;20206;-66
2023/05/16 10:16:58;;;;;;;1.98;1.88;;;;;;;;;;5135868;27;20203;-66
2023/05/16 10:19:27;;;;;;;2.53;1.98;;;;;;;;;;5136878;27;20220;-66
2023/05/16 10:21:59;;;;;;;2.13;2.00;;;;;;;;;;5135798;27;20767;-67
2023/05/16 10:24:30;;;;;;;2.10;2.00;;;;;;;;;;5136049;27;20208;-66
2023/05/16 10:26:57;;;;;;;2.50;2.30;;;;;;;;;;5135285;27;20235;-66
2023/05/16 10:29:25;;;;;;;2.20;2.00;;;;;;;;;;5135912;27;20197;-66
2023/05/16 10:31:53;;;;;;;2.40;1.90;;;;;;;;;;5135106;27;20628;-66
2023/05/16 10:34:20;;;;;;;2.85;1.95;;;;;;;;;;5136018;27;20194;-66
2023/05/16 10:36:49;;;;;;;2.28;1.90;;;;;;;;;;5133958;27;20197;-72
2023/05/16 10:39:18;;;;;;;2.42;2.20;;;;;;;;;;5133792;27;20226;-66
2023/05/16 10:41:45;;;;;;;2.17;2.08;;;;;;;;;;5133520;27;20198;-66
2023/05/16 10:44:14;;;;;;;2.58;2.25;;;;;;;;;;5135734;27;20202;-66
2023/05/16 10:46:42;;;;;;;2.22;2.03;;;;;;;;;;5136036;27;20233;-66
2023/05/16 10:49:22;;;;;;;3.17;2.30;;;;;;;;;;5135981;27;20468;-66
2023/05/16 10:52:04;;;;;;;2.30;2.10;;;;;;;;;;5135450;27;20198;-67
2023/05/16 10:54:35;;;;;;;2.40;2.30;;;;;;;;;;5135754;27;20647;-66
2023/05/16 10:57:05;;;;;;;2.28;2.17;;;;;;;;;;5136144;27;20305;-67
2023/05/16 10:59:40;;;;;;;2.53;2.15;;;;;;;;;;5135724;27;20265;-66
2023/05/16 11:02:21;;;;;;;2.83;2.50;;;;;;;;;;5135589;27;20201;-67
2023/05/16 11:04:52;;;;;;;2.47;2.28;;;;;;;;;;5135601;27;20198;-67
2023/05/16 11:07:22;;;;;;;2.40;2.20;;;;;;;;;;5135525;27;20198;-66
2023/05/16 11:10:06;;;;;;;2.42;2.22;;;;;;;;;;5135884;27;20206;-66
2023/05/16 11:12:44;;;;;;;2.60;2.40;;;;;;;;;;5136727;27;20244;-66
2023/05/16 11:15:19;;;;;;;2.65;2.45;;;;;;;;;;5135743;27;20323;-66
2023/05/16 11:17:46;;;;;;;2.88;2.33;;;;;;;;;;5135859;28;20236;-66
2023/05/16 11:20:26;;;;;;;2.22;2.10;;;;;;;;;;5135207;27;20213;-67
2023/05/16 11:23:15;;;;;;;2.60;2.40;;;;;;;;;;5135737;28;20262;-66
2023/05/16 11:25:44;;;;;;;2.70;2.50;;;;;;;;;;5134774;27;20225;-66
2023/05/16 11:28:13;;;;;;;2.28;2.17;;;;;;;;;;5134667;27;20254;-66
2023/05/16 11:30:44;;;;;;;2.67;2.47;;;;;;;;;;5134149;28;20194;-66
2023/05/16 11:33:12;;;;;;;2.30;2.10;;;;;;;;;;5114093;28;20512;-66
2023/05/16 11:35:41;;;;;;;2.40;2.20;;;;;;;;;;5114130;28;20203;-66
2023/05/16 11:38:15;;;;;;;2.60;2.40;;;;;;;;;;5114250;28;20589;-66
2023/05/16 11:40:46;;;;;;;2.50;2.30;;;;;;;;;;5115752;28;20206;-66
2023/05/16 11:43:19;;;;;;;2.70;2.47;;;;;;;;;;5117745;28;20242;-66
2023/05/16 11:45:46;;;;;;;2.88;2.67;;;;;;;;;;5118894;28;20260;-66
2023/05/16 11:48:14;;;;;;;2.63;2.42;;;;;;;;;;5118760;28;20211;-66
2023/05/16 11:50:41;;;;;;;2.85;2.63;;;;;;;;;;5118486;28;20206;-67
2023/05/16 11:53:09;;;;;;;2.33;2.20;;;;;;;;;;5117608;28;20207;-67
2023/05/16 11:55:38;;;;;;;2.60;2.40;;;;;;;;;;5118654;28;20210;-66
2023/05/16 11:58:05;;;;;;;2.35;2.15;;;;;;;;;;5117912;28;20618;-66
2023/05/16 12:00:32;;;;;;;2.65;2.45;;;;;;;;;;5118527;28;20218;-66
2023/05/16 12:03:03;;;;;;;2.60;2.40;;;;;;;;;;5117691;28;20211;-67
2023/05/16 12:05:31;;;;;;;2.45;2.25;;;;;;;;;;5118379;28;20199;-66
2023/05/16 12:07:59;;;;;;;2.20;2.00;;;;;;;;;;5118437;28;20651;-66
2023/05/16 12:10:26;;;;;;;2.25;2.08;;;;;;;;;;5118342;28;20603;-66
2023/05/16 12:12:55;;;;;;;2.03;1.92;;;;;;;;;;5118572;28;20213;-66
2023/05/16 12:15:23;;;;;;;2.20;2.08;;;;;;;;;;5117697;28;20203;-66
2023/05/16 12:17:51;;;;;;;2.30;2.10;;;;;;;;;;5118255;28;20194;-66
2023/05/16 12:20:18;;;;;;;2.00;1.90;;;;;;;;;;5117724;28;20237;-66
2023/05/16 12:22:46;;;;;;;2.40;2.20;;;;;;;;;;5118132;28;20210;-66
2023/05/16 12:25:23;;;;;;;2.35;2.20;;;;;;;;;;5118443;28;20194;-67
2023/05/16 12:27:51;;;;;;;2.22;2.13;;;;;;;;;;5116565;28;20638;-66
2023/05/16 12:30:22;;;;;;;2.50;2.30;;;;;;;;;;5118034;28;20268;-66
2023/05/16 12:32:53;;;;;;;2.08;1.92;;;;;;;;;;5117820;28;20207;-66
2023/05/16 12:35:20;;;;;;;2.33;2.15;;;;;;;;;;5117018;28;20209;-66
2023/05/16 12:37:48;;;;;;;2.25;2.15;;;;;;;;;;5117663;28;20234;-66
2023/05/16 12:40:15;;;;;;;2.05;1.95;;;;;;;;;;5117289;28;20201;-66
2023/05/16 12:42:44;;;;;;;2.40;2.20;;;;;;;;;;5116953;28;20199;-66
2023/05/16 12:45:16;;;;;;;2.50;2.30;;;;;;;;;;5117013;28;20260;-66
2023/05/16 12:47:45;;;;;;;2.70;2.50;;;;;;;;;;5116328;28;20270;-66
2023/05/16 12:50:15;;;;;;;2.22;2.03;;;;;;;;;;5116200;28;20203;-66
2023/05/16 12:52:49;;;;;;;2.00;1.90;;;;;;;;;;5115759;28;20207;-66
2023/05/16 12:55:17;;;;;;;2.35;2.15;;;;;;;;;;5116789;28;20202;-67
2023/05/16 12:57:46;;;;;;;2.50;2.30;;;;;;;;;;5116927;28;20203;-66
2023/05/16 13:00:14;;;;;;;2.40;2.20;;;;;;;;;;5116801;28;20222;-66
2023/05/16 13:02:42;;;;;;;2.20;2.10;;;;;;;;;;5117368;28;20210;-66
2023/05/16 13:05:10;;;;;;;2.22;2.10;;;;;;;;;;5117308;28;20207;-66
2023/05/16 13:07:39;;;;;;;2.38;2.17;;;;;;;;;;5117533;28;20214;-66
2023/05/16 13:10:09;;;;;;;2.40;2.20;;;;;;;;;;5117110;28;20199;-65
2023/05/16 13:12:37;;;;;;;2.10;2.00;;;;;;;;;;5117256;28;20310;-66
2023/05/16 13:15:06;;;;;;;2.13;1.88;;;;;;;;;;5117260;28;20203;-64
2023/05/16 13:17:33;;;;;;;2.08;1.98;;;;;;;;;;5116422;28;20195;-65
2023/05/16 13:20:01;;;;;;;2.42;2.22;;;;;;;;;;5116039;28;20219;-64
2023/05/16 13:22:30;;;;;;;2.13;1.98;;;;;;;;;;5117025;28;20372;-65
2023/05/16 13:24:57;;;;;;;2.17;2.08;;;;;;;;;;5117455;28;20203;-64
2023/05/16 13:27:25;;;;;;;2.00;1.90;;;;;;;;;;5117304;28;20239;-66
2023/05/16 13:29:52;;;;;;;2.15;1.95;;;;;;;;;;5117039;28;20615;-65
2023/05/16 13:32:19;;;;;;;2.50;2.30;;;;;;;;;;5117318;28;20221;-66
2023/05/16 13:34:47;;;;;;;2.50;2.38;;;;;;;;;;5116054;28;20211;-65
2023/05/16 13:37:14;;;;;;;2.08;1.98;;;;;;;;;;5115994;28;20753;-66
2023/05/16 13:39:43;;;;;;;2.15;2.05;;;;;;;;;;5115700;28;20258;-65
2023/05/16 13:42:11;;;;;;;2.00;1.90;;;;;;;;;;5115250;28;20199;-65
2023/05/16 13:44:38;;;;;;;2.15;2.05;;;;;;;;;;5115695;28;20517;-65
2023/05/16 13:47:05;;;;;;;1.83;1.73;;;;;;;;;;5115809;28;20203;-67
2023/05/16 13:49:33;;;;;;;2.13;1.98;;;;;;;;;;5115537;28;20202;-65
2023/05/16 13:52:00;;;;;;;2.00;1.90;;;;;;;;;;5115584;28;20203;-65
2023/05/16 13:54:28;;;;;;;1.90;1.80;;;;;;;;;;5115577;28;20682;-65
2023/05/16 13:56:56;;;;;;;2.20;2.05;;;;;;;;;;5115533;28;20210;-65
2023/05/16 13:59:24;;;;;;;2.22;2.05;;;;;;;;;;5115403;28;20235;-65
2023/05/16 14:01:51;;;;;;;2.15;2.05;;;;;;;;;;5114481;28;20353;-65
2023/05/16 14:04:19;;;;;;;1.98;1.88;;;;;;;;;;5114533;28;20199;-65
2023/05/16 14:06:47;;;;;;;2.05;1.95;;;;;;;;;;5115294;28;20722;-65
2023/05/16 14:09:15;;;;;;;2.00;1.90;;;;;;;;;;5114837;28;20199;-65
2023/05/16 14:11:43;;;;;;;1.90;1.80;;;;;;;;;;5114816;28;20241;-65
2023/05/16 14:14:11;;;;;;;2.05;1.95;;;;;;;;;;5114572;28;20208;-65
2023/05/16 14:16:43;;;;;;;1.95;1.85;;;;;;;;;;5115311;28;20203;-65
2023/05/16 14:19:11;;;;;;;2.05;1.92;;;;;;;;;;5114601;28;20226;-65
2023/05/16 14:21:39;;;;;;;2.10;2.00;;;;;;;;;;5115137;28;20229;-65
2023/05/16 14:24:06;;;;;;;2.10;1.92;;;;;;;;;;5114822;28;20207;-65
2023/05/16 14:26:34;;;;;;;1.80;1.70;;;;;;;;;;5115409;28;20234;-65
2023/05/16 14:29:01;;;;;;;2.05;1.92;;;;;;;;;;5115209;28;20203;-65
2023/05/16 14:31:31;;;;;;;2.20;2.08;;;;;;;;;;5115828;28;20504;-65
2023/05/16 14:33:58;;;;;;;2.05;1.95;;;;;;;;;;5114623;28;20206;-65
2023/05/16 14:36:26;;;;;;;1.60;1.50;;;;;;;;;;5115487;28;20263;-65
2023/05/16 14:38:53;;;;;;;1.90;1.80;;;;;;;;;;5115198;28;20219;-65
2023/05/16 14:41:21;;;;;;;1.80;1.70;;;;;;;;;;5115166;28;20238;-65
2023/05/16 14:43:48;;;;;;;1.90;1.80;;;;;;;;;;5115257;28;20816;-65
2023/05/16 14:46:16;;;;;;;1.80;1.70;;;;;;;;;;5114565;28;20203;-65
2023/05/16 14:48:45;;;;;;;1.90;1.80;;;;;;;;;;5115054;28;20202;-65
2023/05/16 14:51:12;;;;;;;1.88;1.77;;;;;;;;;;5114758;28;20631;-65